Time;durP1;ratioP1;P1;durP2;ratioP2;P2;SDS_P1;SDS_P2;PMS_P1;PMS_P2;Temp;Humidity;BMP_temperature;BMP_pressure;BME280_temperature;BME280_humidity;BME280_pressure;Samples;Min_cycle;Max_cycle;Signal;HPM_P1;HPM_P2
2021/09/07 00:01:23;;;;;;;;;;;;;;;-142.75;90.01;77460.13;4989606;28;20013;-75
2021/09/07 00:03:48;;;;;;;;;;;;;;;-142.75;90.05;77470.00;5060828;28;19912;-75
2021/09/07 00:06:14;;;;;;;;;;;;;;;-142.75;89.85;77473.94;5058295;28;20000;-75
2021/09/07 00:08:39;;;;;;;;;;;;;;;-142.75;89.96;77468.03;4989859;28;19929;-75
2021/09/07 00:11:05;;;;;;;;;;;;;;;-142.75;90.12;77468.03;4989764;28;19914;-75
2021/09/07 00:13:30;;;;;;;;;;;;;;;-142.75;89.89;77473.94;5061985;28;19912;-75
2021/09/07 00:15:55;;;;;;;;;;;;;;;-142.75;90.00;77479.84;4989880;28;20303;-75
2021/09/07 00:18:20;;;;;;;;;;;;;;;-142.75;91.12;77479.84;4989667;28;20000;-75
2021/09/07 00:20:45;;;;;;;;;;;;;;;-142.75;91.75;77487.72;5059907;28;20278;-74
2021/09/07 00:23:11;;;;;;;;;;;;;;;-142.75;91.46;77477.88;4990075;28;19951;-75
2021/09/07 00:25:36;;;;;;;;;;;;;;;-142.75;92.09;77477.88;4989668;28;19910;-75
2021/09/07 00:28:01;;;;;;;;;;;;;;;-142.75;92.56;77473.94;4989615;28;19917;-75
2021/09/07 00:30:27;;;;;;;;;;;;;;;-142.75;92.71;77479.84;4989323;28;20395;-75
2021/09/07 00:32:52;;;;;;;;;;;;;;;-142.75;93.23;77479.84;4989768;28;19922;-75
2021/09/07 00:35:17;;;;;;;;;;;;;;;-142.75;93.85;77481.81;4989460;28;19991;-75
2021/09/07 00:37:42;;;;;;;;;;;;;;;-142.75;93.79;77479.84;4989486;28;20004;-75
2021/09/07 00:40:08;;;;;;;;;;;;;;;-142.75;92.83;77479.84;4988855;28;19924;-75
2021/09/07 00:42:36;;;;;;;;;;;;;;;-142.75;92.35;77485.75;4989497;28;19914;-75
2021/09/07 00:45:01;;;;;;;;;;;;;;;-142.75;92.34;77499.53;4989498;28;20026;-75
2021/09/07 00:47:26;;;;;;;;;;;;;;;-142.75;92.46;77491.66;5056705;28;20394;-75
2021/09/07 00:49:52;;;;;;;;;;;;;;;-142.75;92.76;77481.81;4989018;28;19920;-74
2021/09/07 00:52:17;;;;;;;;;;;;;;;-142.75;93.91;77464.09;5061045;28;19916;-75
2021/09/07 00:54:43;;;;;;;;;;;;;;;-142.75;93.63;77464.09;4989466;28;19922;-75
2021/09/07 00:57:09;;;;;;;;;;;;;;;-142.75;93.61;77466.03;4988218;28;19914;-75
2021/09/07 00:59:35;;;;;;;;;;;;;;;-142.75;93.48;77464.09;4993451;28;19983;-76
2021/09/07 01:02:00;;;;;;;;;;;;;;;-142.75;94.93;77456.22;4994013;28;20006;-76
2021/09/07 01:04:26;;;;;;;;;;;;;;;-142.75;95.02;77444.38;4999563;28;20363;-75
2021/09/07 01:06:51;;;;;;;;;;;;;;;-142.75;95.52;77430.59;4997534;28;19917;-75
2021/09/07 01:09:17;;;;;;;;;;;;;;;-142.75;94.97;77422.72;5076640;28;20528;-75
2021/09/07 01:11:42;;;;;;;;;;;;;;;-142.75;94.21;77432.56;5076444;28;19931;-75
2021/09/07 01:14:07;;;;;;;;;;;;;;;-142.75;93.76;77440.44;5008561;28;19913;-75
2021/09/07 01:16:32;;;;;;;;;;;;;;;-142.75;93.22;77448.34;5008449;28;19952;-75
2021/09/07 01:18:59;;;;;;;;;;;;;;;-142.75;92.98;77460.13;5068350;28;20401;-75
2021/09/07 01:21:25;;;;;;;;;;;;;;;-142.75;92.67;77468.03;4988547;28;20402;-76
2021/09/07 01:23:50;;;;;;;;;;;;;;;-142.75;92.62;77471.97;4988877;28;19917;-74
2021/09/07 01:26:17;;;;;;;;;;;;;;;-142.75;92.56;77483.78;4988890;28;19932;-74
2021/09/07 01:28:43;;;;;;;;;;;;;;;-142.75;91.97;77483.78;5055887;28;19920;-75
2021/09/07 01:31:10;;;;;;;;;;;;;;;-142.75;91.46;77483.78;4988588;28;20013;-75
2021/09/07 01:33:35;;;;;;;;;;;;;;;-142.75;91.13;77483.78;4988928;28;19914;-75
2021/09/07 01:36:01;;;;;;;;;;;;;;;-142.75;90.47;77483.78;4988746;28;19913;-75
2021/09/07 01:38:27;;;;;;;;;;;;;;;-142.75;90.58;77491.66;5055727;28;19913;-75
2021/09/07 01:40:52;;;;;;;;;;;;;;;-142.75;90.96;77493.63;5054529;28;19922;-74
2021/09/07 01:43:18;;;;;;;;;;;;;;;-142.75;91.25;77503.47;5075774;28;20382;-74
2021/09/07 01:45:47;;;;;;;;;;;;;;;-142.75;92.12;77511.34;5008265;28;20294;-76
2021/09/07 01:48:13;;;;;;;;;;;;;;;-142.75;92.55;77515.28;5008157;28;19924;-75
2021/09/07 01:50:38;;;;;;;;;;;;;;;-142.75;93.24;77527.09;5075304;28;19982;-75
2021/09/07 01:53:03;;;;;;;;;;;;;;;-142.75;93.70;77529.06;5075958;28;19921;-74
2021/09/07 01:55:28;;;;;;;;;;;;;;;-142.75;94.29;77536.94;4993211;28;19927;-75
2021/09/07 01:57:54;;;;;;;;;;;;;;;-142.75;94.74;77538.91;4988545;28;19913;-74
2021/09/07 02:00:19;;;;;;;;;;;;;;;-142.75;94.63;77531.03;4988117;28;19943;-75
2021/09/07 02:02:44;;;;;;;;;;;;;;;-142.75;93.49;77533.00;5056542;28;20020;-74
2021/09/07 02:05:09;;;;;;;;;;;;;;;-142.75;93.03;77527.09;4993364;28;19920;-75
2021/09/07 02:07:35;;;;;;;;;;;;;;;-142.75;93.80;77538.91;5075767;28;19928;-75
2021/09/07 02:10:00;;;;;;;;;;;;;;;-142.75;95.24;77534.97;5007586;28;20425;-74
2021/09/07 02:12:25;;;;;;;;;;;;;;;-142.75;94.57;77538.91;5007990;28;20404;-74
2021/09/07 02:14:50;;;;;;;;;;;;;;;-142.75;93.73;77540.88;5003785;28;19913;-75
2021/09/07 02:17:15;;;;;;;;;;;;;;;-142.75;93.63;77546.78;5007802;28;20369;-74
2021/09/07 02:19:41;;;;;;;;;;;;;;;-142.75;93.59;77554.66;5078937;28;19925;-75
2021/09/07 02:22:06;;;;;;;;;;;;;;;-142.75;93.39;77548.75;5079057;28;19917;-75
2021/09/07 02:24:31;;;;;;;;;;;;;;;-142.75;93.31;77558.59;5079071;28;19921;-75
2021/09/07 02:26:56;;;;;;;;;;;;;;;-142.75;93.70;77564.50;5010566;28;19920;-75
2021/09/07 02:29:21;;;;;;;;;;;;;;;-142.75;93.59;77564.50;5062207;28;19916;-75
2021/09/07 02:31:47;;;;;;;;;;;;;;;-142.75;93.13;77566.47;4991083;28;19914;-75
2021/09/07 02:34:12;;;;;;;;;;;;;;;-142.75;93.15;77570.41;5008574;28;19953;-75
2021/09/07 02:36:37;;;;;;;;;;;;;;;-142.75;93.45;77568.44;5010931;28;19920;-75
2021/09/07 02:39:02;;;;;;;;;;;;;;;-142.75;94.25;77570.41;5010659;28;20374;-75
2021/09/07 02:41:28;;;;;;;;;;;;;;;-142.75;94.51;77568.44;5010585;28;19921;-74
2021/09/07 02:43:53;;;;;;;;;;;;;;;-142.75;94.62;77576.31;5010787;28;19974;-75
2021/09/07 02:46:19;;;;;;;;;;;;;;;-142.75;94.69;77570.41;5010771;28;19921;-75
2021/09/07 02:48:44;;;;;;;;;;;;;;;-142.75;95.07;77576.31;5010580;28;20008;-75
2021/09/07 02:51:09;;;;;;;;;;;;;;;-142.75;95.40;77578.28;5006871;28;20032;-75
2021/09/07 02:53:35;;;;;;;;;;;;;;;-142.75;95.39;77578.28;4991054;28;19914;-75
2021/09/07 02:56:00;;;;;;;;;;;;;;;-142.75;95.32;77582.22;4991149;28;20335;-75
2021/09/07 02:58:25;;;;;;;;;;;;;;;-142.75;95.81;77597.97;4991034;28;19926;-75
2021/09/07 03:00:50;;;;;;;;;;;;;;;-142.75;96.33;77597.97;4990602;28;19929;-75
2021/09/07 03:03:16;;;;;;;;;;;;;;;-142.75;96.82;77599.94;4994765;28;19995;-75
2021/09/07 03:05:41;;;;;;;;;;;;;;;-142.75;97.03;77605.84;5007390;28;20012;-75
2021/09/07 03:08:06;;;;;;;;;;;;;;;-142.75;97.46;77609.78;4990904;28;20352;-74
2021/09/07 03:10:33;;;;;;;;;;;;;;;-142.75;97.50;77597.97;5006778;28;20306;-74
2021/09/07 03:12:58;;;;;;;;;;;;;;;-142.75;96.92;77592.06;4991995;28;20296;-75
2021/09/07 03:15:23;;;;;;;;;;;;;;;-142.75;96.56;77582.22;4990790;28;19951;-75
2021/09/07 03:17:49;;;;;;;;;;;;;;;-142.75;95.85;77588.13;4990776;28;19913;-75
2021/09/07 03:20:14;;;;;;;;;;;;;;;-142.75;95.64;77590.09;4998216;28;19917;-75
2021/09/07 03:22:39;;;;;;;;;;;;;;;-142.75;96.17;77590.09;5010166;28;19917;-75
2021/09/07 03:25:04;;;;;;;;;;;;;;;-142.75;96.48;77594.03;4993002;28;19956;-75
2021/09/07 03:27:30;;;;;;;;;;;;;;;-142.75;96.74;77597.97;5010082;28;20046;-75
2021/09/07 03:29:55;;;;;;;;;;;;;;;-142.75;97.75;77601.91;4995217;28;19913;-75
2021/09/07 03:32:20;;;;;;;;;;;;;;;-142.75;97.79;77603.88;5060406;28;19921;-75
2021/09/07 03:34:45;;;;;;;;;;;;;;;-142.75;97.32;77601.91;4990399;28;19969;-75
2021/09/07 03:37:10;;;;;;;;;;;;;;;-142.75;96.65;77601.91;4990550;28;19914;-75
2021/09/07 03:39:35;;;;;;;;;;;;;;;-142.75;95.94;77603.88;5078555;22;19921;-78
2021/09/07 03:42:01;;;;;;;;;;;;;;;-142.75;95.48;77609.78;5012431;28;20360;-76
2021/09/07 03:44:26;;;;;;;;;;;;;;;-142.75;95.25;77621.59;5049487;28;19918;-78
2021/09/07 03:46:51;;;;;;;;;;;;;;;-142.75;95.46;77627.50;5027139;28;19921;-78
2021/09/07 03:49:16;;;;;;;;;;;;;;;-142.75;96.12;77629.47;5054384;28;19913;-78
2021/09/07 03:51:42;;;;;;;;;;;;;;;-142.75;97.08;77635.38;5052811;28;19913;-78
2021/09/07 03:54:07;;;;;;;;;;;;;;;-142.75;97.41;77637.34;5063808;28;19914;-78
2021/09/07 03:56:32;;;;;;;;;;;;;;;-142.75;97.14;77645.22;5022440;28;19960;-77
2021/09/07 03:58:57;;;;;;;;;;;;;;;-142.75;97.28;77633.41;5030761;28;19914;-78
2021/09/07 04:01:22;;;;;;;;;;;;;;;-142.75;97.09;77625.53;5028968;28;19964;-78
2021/09/07 04:03:48;;;;;;;;;;;;;;;-142.75;97.04;77629.47;5056836;28;19913;-78
2021/09/07 04:06:13;;;;;;;;;;;;;;;-142.75;97.43;77643.25;5073531;28;19913;-79
2021/09/07 04:08:38;;;;;;;;;;;;;;;-142.75;98.03;77639.31;5031500;28;19914;-79
2021/09/07 04:11:03;;;;;;;;;;;;;;;-142.75;98.64;77645.22;5029833;28;20370;-79
2021/09/07 04:13:28;;;;;;;;;;;;;;;-142.75;99.00;77649.16;5049821;28;19913;-79
2021/09/07 04:15:53;;;;;;;;;;;;;;;-142.75;99.30;77649.16;5056595;28;19913;-78
2021/09/07 04:18:19;;;;;;;;;;;;;;;-142.75;98.77;77647.19;5028942;28;19914;-78
2021/09/07 04:20:44;;;;;;;;;;;;;;;-142.75;98.33;77649.16;5028508;28;19957;-78
2021/09/07 04:23:09;;;;;;;;;;;;;;;-142.75;98.07;77641.28;5050099;28;19917;-79
2021/09/07 04:25:36;;;;;;;;;;;;;;;-142.75;98.11;77647.19;5029712;28;19920;-78
2021/09/07 04:28:01;;;;;;;;;;;;;;;-142.75;98.25;77655.06;5031356;28;19966;-78
2021/09/07 04:30:27;;;;;;;;;;;;;;;-142.75;98.60;77670.81;5028793;28;19932;-79
2021/09/07 04:32:52;;;;;;;;;;;;;;;-142.75;98.64;77664.91;5049904;28;20289;-78
2021/09/07 04:35:17;;;;;;;;;;;;;;;-142.75;98.71;77670.81;5031526;28;19929;-78
2021/09/07 04:37:42;;;;;;;;;;;;;;;-142.75;98.93;77670.81;5050889;28;19958;-78
2021/09/07 04:40:07;;;;;;;;;;;;;;;-142.75;99.43;77676.72;5042704;28;20386;-78
2021/09/07 04:42:33;;;;;;;;;;;;;;;-142.75;99.63;77670.81;5057950;28;19913;-78
2021/09/07 04:44:58;;;;;;;;;;;;;;;-142.75;99.50;77664.91;5054896;28;19913;-78
2021/09/07 04:47:23;;;;;;;;;;;;;;;-142.75;99.28;77660.97;5060008;28;19914;-79
2021/09/07 04:49:48;;;;;;;;;;;;;;;-142.75;99.56;77664.91;5029858;28;19917;-78
2021/09/07 04:52:13;;;;;;;;;;;;;;;-142.75;99.65;77660.97;5049020;28;19920;-79
2021/09/07 04:54:39;;;;;;;;;;;;;;;-142.75;99.53;77660.97;5061682;28;19999;-79
2021/09/07 04:57:04;;;;;;;;;;;;;;;-142.75;98.78;77645.22;5033979;28;20008;-79
2021/09/07 04:59:29;;;;;;;;;;;;;;;-142.75;97.99;77647.19;5033068;28;19948;-79
2021/09/07 05:01:54;;;;;;;;;;;;;;;-142.75;97.36;77641.28;5056514;28;19913;-78
2021/09/07 05:04:19;;;;;;;;;;;;;;;-142.75;97.10;77633.41;5033139;28;19927;-79
2021/09/07 05:06:44;;;;;;;;;;;;;;;-142.75;96.79;77645.22;5060434;28;20393;-78
2021/09/07 05:09:10;;;;;;;;;;;;;;;-142.75;96.77;77653.09;5033473;28;19966;-79
2021/09/07 05:11:35;;;;;;;;;;;;;;;-142.75;96.73;77653.09;5029459;28;19963;-79
2021/09/07 05:14:00;;;;;;;;;;;;;;;-142.75;97.42;77649.16;5064010;28;19912;-79
2021/09/07 05:16:25;;;;;;;;;;;;;;;-142.75;97.95;77659.00;5034837;28;20318;-77
2021/09/07 05:18:50;;;;;;;;;;;;;;;-142.75;98.32;77651.13;5057015;28;20281;-78
2021/09/07 05:21:16;;;;;;;;;;;;;;;-142.75;99.30;77649.16;5023904;28;19913;-77
2021/09/07 05:23:41;;;;;;;;;;;;;;;-142.75;100.00;77645.22;5032339;28;19913;-78
2021/09/07 05:26:06;;;;;;;;;;;;;;;-142.75;100.00;77641.28;5073220;28;19956;-79
2021/09/07 05:28:31;;;;;;;;;;;;;;;-142.75;100.00;77627.50;5049882;28;20396;-78
2021/09/07 05:30:57;;;;;;;;;;;;;;;-142.75;100.00;77605.84;5067375;28;20524;-79
2021/09/07 05:33:23;;;;;;;;;;;;;;;-142.75;100.00;77594.03;5034276;28;19920;-79
2021/09/07 05:35:48;;;;;;;;;;;;;;;-142.75;100.00;77594.03;5022637;28;19913;-78
2021/09/07 05:38:13;;;;;;;;;;;;;;;-142.75;100.00;77568.44;5021905;28;19917;-78
2021/09/07 05:40:39;;;;;;;;;;;;;;;-142.75;100.00;77548.75;5020889;28;19914;-79
2021/09/07 05:43:04;;;;;;;;;;;;;;;-142.75;100.00;77538.91;5053629;28;19913;-78
2021/09/07 05:45:29;;;;;;;;;;;;;;;-142.75;100.00;77538.91;5069784;28;19946;-78
2021/09/07 05:47:55;;;;;;;;;;;;;;;-142.75;100.00;77525.13;5028385;28;19909;-78
2021/09/07 05:50:20;;;;;;;;;;;;;;;-142.75;100.00;77525.13;5027522;28;20314;-78
2021/09/07 05:52:45;;;;;;;;;;;;;;;-142.75;100.00;77515.28;5074759;28;19913;-79
2021/09/07 05:55:11;;;;;;;;;;;;;;;-142.75;100.00;77505.44;5033263;28;19921;-78
2021/09/07 05:57:37;;;;;;;;;;;;;;;-142.75;100.00;77493.63;5063858;28;19913;-78
2021/09/07 06:00:04;;;;;;;;;;;;;;;-142.75;100.00;77475.91;5030858;28;19956;-78
2021/09/07 06:02:30;;;;;;;;;;;;;;;-142.75;100.00;77466.03;5034818;28;19913;-78
2021/09/07 06:04:55;;;;;;;;;;;;;;;-142.75;100.00;77452.25;5051540;28;20015;-78
2021/09/07 06:07:20;;;;;;;;;;;;;;;-142.75;100.00;77458.16;5043266;28;19913;-78
2021/09/07 06:09:45;;;;;;;;;;;;;;;-142.75;100.00;77442.41;5063311;28;19973;-77
2021/09/07 06:12:10;;;;;;;;;;;;;;;-142.75;100.00;77426.66;5021994;28;19913;-78
2021/09/07 06:14:35;;;;;;;;;;;;;;;-142.75;100.00;77412.88;5032767;28;19913;-78
2021/09/07 06:17:01;;;;;;;;;;;;;;;-142.75;100.00;77399.09;5048603;28;19918;-79
2021/09/07 06:19:26;;;;;;;;;;;;;;;-142.75;100.00;77383.34;5029929;28;19917;-78
2021/09/07 06:21:52;;;;;;;;;;;;;;;-142.75;100.00;77373.50;5070254;28;20374;-78
2021/09/07 06:24:17;;;;;;;;;;;;;;;-142.75;100.00;77365.63;5066492;28;19981;-78
2021/09/07 06:26:43;;;;;;;;;;;;;;;-142.75;100.00;77349.88;5028657;28;19984;-79
2021/09/07 06:29:08;;;;;;;;;;;;;;;-142.75;100.00;77330.19;5030740;28;19969;-79
2021/09/07 06:31:33;;;;;;;;;;;;;;;-142.75;100.00;77320.34;5053365;28;19917;-78
2021/09/07 06:33:58;;;;;;;;;;;;;;;-142.75;100.00;77306.56;5064686;28;19929;-79
2021/09/07 06:36:23;;;;;;;;;;;;;;;-142.75;100.00;77296.72;5034157;28;20340;-78
2021/09/07 06:38:49;;;;;;;;;;;;;;;-142.75;100.00;77288.84;5054085;28;19920;-78
2021/09/07 06:41:14;;;;;;;;;;;;;;;-142.75;99.89;77269.16;5051514;28;20416;-78
2021/09/07 06:43:39;;;;;;;;;;;;;;;-142.75;99.43;77223.88;5026363;28;19917;-78
2021/09/07 06:46:04;;;;;;;;;;;;;;;-142.75;97.99;77196.31;5066233;28;20402;-78
2021/09/07 06:48:30;;;;;;;;;;;;;;;-142.75;96.16;77182.53;5058018;28;19917;-79
2021/09/07 06:50:55;;;;;;;;;;;;;;;-142.75;95.23;77164.81;5036017;28;19926;-78
2021/09/07 06:53:20;;;;;;;;;;;;;;;-142.75;93.10;77182.53;5029078;28;19913;-78
2021/09/07 06:55:45;;;;;;;;;;;;;;;-142.75;92.92;77178.59;5042238;28;19913;-78
2021/09/07 06:58:10;;;;;;;;;;;;;;;-142.75;92.67;77176.63;5029584;28;20344;-78
2021/09/07 07:00:36;;;;;;;;;;;;;;;-142.75;93.76;77172.69;5028765;28;20000;-78
2021/09/07 07:03:01;;;;;;;;;;;;;;;-142.75;92.50;77166.78;5022082;28;20012;-78
2021/09/07 07:05:26;;;;;;;;;;;;;;;-142.75;87.27;77147.09;5053666;28;19958;-78
2021/09/07 07:07:51;;;;;;;;;;;;;;;-142.75;84.93;77137.25;5017526;28;20003;-79
2021/09/07 07:10:17;;;;;;;;;;;;;;;-142.75;85.38;77129.38;5085868;28;20019;-79
2021/09/07 07:12:42;;;;;;;;;;;;;;;-142.75;87.09;77113.63;5076340;28;20008;-78
2021/09/07 07:15:07;;;;;;;;;;;;;;;-142.75;87.54;77070.31;5050176;28;20000;-78
2021/09/07 07:17:33;;;;;;;;;;;;;;;-142.75;81.90;77027.00;5086734;28;19913;-79
2021/09/07 07:19:58;;;;;;;;;;;;;;;-142.75;79.26;76967.94;5085889;28;20015;-80
2021/09/07 07:22:25;;;;;;;;;;;;;;;-142.75;76.85;76928.56;5017841;28;19962;-79
2021/09/07 07:24:50;;;;;;;;;;;;;;;-142.75;75.45;76967.94;5027676;28;19917;-79
2021/09/07 07:27:15;;;;;;;;;;;;;;;-142.75;75.43;76936.44;5087251;28;19921;-79
2021/09/07 07:29:41;;;;;;;;;;;;;;;-142.75;74.17;76940.38;5018762;28;19966;-79
2021/09/07 07:32:06;;;;;;;;;;;;;;;-142.75;74.41;76956.13;5036661;28;20403;-79
2021/09/07 07:34:31;;;;;;;;;;;;;;;-142.75;74.32;76960.06;5022397;28;19913;-79
2021/09/07 07:36:57;;;;;;;;;;;;;;;-142.75;73.81;76922.66;5020542;28;19945;-79
2021/09/07 07:39:23;;;;;;;;;;;;;;;-142.75;77.38;76810.44;5036012;28;19913;-78
2021/09/07 07:41:48;;;;;;;;;;;;;;;-142.75;69.92;76682.50;5018359;28;19921;-78
2021/09/07 07:44:13;;;;;;;;;;;;;;;-142.75;64.66;76682.50;5084083;28;19919;-79
2021/09/07 07:46:38;;;;;;;;;;;;;;;-142.75;64.39;76708.09;5084978;28;20000;-79
2021/09/07 07:49:04;;;;;;;;;;;;;;;-142.75;67.34;76769.13;5029357;28;20007;-79
2021/09/07 07:51:29;;;;;;;;;;;;;;;-142.75;65.46;76759.28;5069042;28;20159;-79
2021/09/07 07:53:54;;;;;;;;;;;;;;;-142.75;68.18;76808.50;5060363;28;20008;-79
2021/09/07 07:56:20;;;;;;;;;;;;;;;-142.75;69.62;76810.44;5064587;28;19965;-80
2021/09/07 07:58:45;;;;;;;;;;;;;;;-142.75;69.12;76755.34;5083393;28;20516;-78
2021/09/07 08:01:10;;;;;;;;;;;;;;;-142.75;68.38;76767.16;5034073;28;19913;-79
2021/09/07 08:03:35;;;;;;;;;;;;;;;-142.75;67.99;76731.72;5026212;28;19920;-78
2021/09/07 08:06:00;;;;;;;;;;;;;;;-142.75;65.21;76609.66;5081604;28;20391;-81
2021/09/07 08:08:25;;;;;;;;;;;;;;;-142.75;63.45;76532.88;5083917;28;20004;-79
2021/09/07 08:10:51;;;;;;;;;;;;;;;-142.75;60.29;76519.13;5016254;28;20008;-79
2021/09/07 08:13:16;;;;;;;;;;;;;;;-142.75;59.21;76424.63;5030883;28;20021;-80
2021/09/07 08:15:41;;;;;;;;;;;;;;;-142.75;57.82;76334.09;5022299;28;20332;-81
2021/09/07 08:18:06;;;;;;;;;;;;;;;-142.75;56.64;76302.59;5025348;28;19958;-80
2021/09/07 08:20:32;;;;;;;;;;;;;;;-142.75;54.73;76278.97;5073240;28;19913;-81
2021/09/07 08:22:58;;;;;;;;;;;;;;;-142.75;55.04;76235.66;5034589;28;20313;-80
2021/09/07 08:25:23;;;;;;;;;;;;;;;-142.75;52.91;76176.63;5026387;28;19997;-80
2021/09/07 08:27:48;;;;;;;;;;;;;;;-142.75;51.49;76129.38;5081353;28;19922;-81
2021/09/07 08:30:15;;;;;;;;;;;;;;;-142.75;50.85;76172.69;5015666;28;19970;-79
2021/09/07 08:32:41;;;;;;;;;;;;;;;-142.75;50.63;76113.63;5047657;28;19924;-79
2021/09/07 08:35:08;;;;;;;;;;;;;;;-142.75;50.41;76129.38;5020133;28;19913;-81
2021/09/07 08:37:33;;;;;;;;;;;;;;;-142.75;47.63;75979.78;5061936;28;19932;-80
2021/09/07 08:39:58;;;;;;;;;;;;;;;-142.75;47.57;76097.88;5023545;28;19913;-80
2021/09/07 08:42:23;;;;;;;;;;;;;;;-142.75;48.05;76117.56;5040548;28;19914;-80
2021/09/07 08:44:48;;;;;;;;;;;;;;;-142.75;47.66;76042.78;5043458;28;19988;-79
2021/09/07 08:47:17;;;;;;;;;;;;;;;-142.75;46.55;76038.84;5059753;28;19913;-79
2021/09/07 08:49:42;;;;;;;;;;;;;;;-142.75;45.59;75924.69;5014278;28;19914;-79
2021/09/07 08:52:07;;;;;;;;;;;;;;;-142.75;45.41;75954.22;5066768;28;19947;-80
2021/09/07 08:54:33;;;;;;;;;;;;;;;-142.75;44.96;75958.16;5031507;28;19917;-79
2021/09/07 08:56:58;;;;;;;;;;;;;;;-142.75;43.33;75989.63;5026909;28;20380;-79
2021/09/07 08:59:23;;;;;;;;;;;;;;;-142.75;43.47;75950.28;5023430;28;19921;-79
2021/09/07 09:01:53;;;;;;;;;;;;;;;-142.75;39.58;75952.25;5063089;28;19913;-80
2021/09/07 09:04:27;;;;;;;;;;;;;;;-142.75;42.56;75928.63;5074811;28;20433;-78
2021/09/07 09:06:52;;;;;;;;;;;;;;;-142.75;41.46;76090.00;5018661;28;19973;-78
2021/09/07 09:09:17;;;;;;;;;;;;;;;-142.75;42.96;76113.63;5083924;28;19960;-80
2021/09/07 09:11:50;;;;;;;;;;;;;;;-142.75;43.14;76090.00;5065377;28;19921;-80
2021/09/07 09:14:32;;;;;;;;;;;;;;;-142.75;45.36;76038.84;5079929;28;20445;-81
2021/09/07 09:16:58;;;;;;;;;;;;;;;-142.75;45.10;76145.13;5053023;28;20389;-80
2021/09/07 09:19:23;;;;;;;;;;;;;;;-142.75;39.27;75958.16;5053084;28;19917;-79
2021/09/07 09:21:48;;;;;;;;;;;;;;;-142.75;40.12;75973.88;5043814;28;19913;-79
2021/09/07 09:24:14;;;;;;;;;;;;;;;-142.75;40.19;75924.69;5049005;28;19965;-79
2021/09/07 09:26:53;;;;;;;;;;;;;;;-142.75;38.24;75775.09;5029177;28;19922;-79
2021/09/07 09:29:19;;;;;;;;;;;;;;;-142.75;40.24;75910.91;5022158;28;20366;-79
2021/09/07 09:31:54;;;;;;;;;;;;;;;-142.75;39.10;75743.63;5037324;28;19923;-79
2021/09/07 09:34:19;;;;;;;;;;;;;;;-142.75;40.50;75824.31;5024984;28;19920;-79
2021/09/07 09:36:58;;;;;;;;;;;;;;;-142.75;39.53;75755.44;5075406;28;19914;-78
2021/09/07 09:41:51;;;;;;;;;;;;;;;-142.75;38.02;75621.59;4987280;28;19983;-76
2021/09/07 09:44:25;;;;;;;;;;;;;;;-142.75;37.72;75668.84;4991155;28;19921;-77
2021/09/07 09:46:50;;;;;;;;;;;;;;;-142.75;36.61;75495.66;4992264;28;19914;-76
2021/09/07 09:49:15;;;;;;;;;;;;;;;-142.75;37.29;75566.50;5045907;28;20293;-77
2021/09/07 09:51:41;;;;;;;;;;;;;;;-142.75;36.97;75566.50;5096583;28;20397;-77
2021/09/07 09:54:07;;;;;;;;;;;;;;;-142.75;38.29;75788.88;5006441;28;19914;-75
2021/09/07 09:56:32;;;;;;;;;;;;;;;-142.75;37.73;75619.63;5059924;28;19914;-77
2021/09/07 09:58:59;;;;;;;;;;;;;;;-142.75;37.60;75635.38;4999505;28;19951;-77
2021/09/07 10:01:25;;;;;;;;;;;;;;;-142.75;38.22;75712.13;5000255;28;19920;-76
2021/09/07 10:03:51;;;;;;;;;;;;;;;-142.75;39.11;75686.53;4993763;28;20278;-76
2021/09/07 10:06:17;;;;;;;;;;;;;;;-142.75;40.02;75849.91;5004835;28;19997;-76
2021/09/07 10:08:43;;;;;;;;;;;;;;;-142.75;37.86;75556.66;5075832;28;20524;-77
2021/09/07 10:11:13;;;;;;;;;;;;;;;-142.75;38.19;75625.53;4994573;28;19917;-77
2021/09/07 10:13:40;;;;;;;;;;;;;;;-142.75;36.58;75594.06;4994265;28;19914;-76
2021/09/07 10:16:09;;;;;;;;;;;;;;;-142.75;36.19;75621.59;5063458;28;20322;-75
2021/09/07 10:24:30;;;;;;;;;;;;;;;-142.75;37.39;75771.16;4994245;28;19922;-77
2021/09/07 10:26:45;;;;;;;;;;;;;;;-142.75;36.82;75720.00;5004155;28;19922;-76
2021/09/07 10:29:10;;;;;;;;;;;;;;;-142.75;37.22;75686.53;5058765;28;20398;-76
2021/09/07 10:31:38;;;;;;;;;;;;;;;-142.75;35.78;75688.50;5073491;28;19925;-77
2021/09/07 10:34:04;;;;;;;;;;;;;;;-142.75;33.31;75507.47;5002117;28;19921;-76
2021/09/07 10:36:31;;;;;;;;;;;;;;;-142.75;33.08;75405.13;5002526;28;19921;-77
2021/09/07 10:39:03;;;;;;;;;;;;;;;-142.75;33.53;75416.94;4990960;28;19917;-76
2021/09/07 10:41:34;;;;;;;;;;;;;;;-142.75;33.70;75586.19;4991339;28;19918;-76
2021/09/07 10:43:59;;;;;;;;;;;;;;;-142.75;34.65;75564.53;4993422;28;20009;-76
2021/09/07 10:46:43;;;;;;;;;;;;;;;-142.75;33.01;75424.81;5066889;28;19961;-76
2021/09/07 10:49:26;;;;;;;;;;;;;;;-142.75;35.30;75637.34;4999642;28;19914;-76
2021/09/07 10:52:04;;;;;;;;;;;;;;;-142.75;34.38;75487.78;5066949;28;19921;-76
2021/09/07 10:54:29;;;;;;;;;;;;;;;-142.75;32.43;75507.47;5009649;28;20280;-76
2021/09/07 10:56:56;;;;;;;;;;;;;;;-142.75;33.54;75529.09;5006798;28;19920;-75
2021/09/07 10:59:40;;;;;;;;;;;;;;;-142.75;34.26;75670.81;4996889;28;19913;-76
2021/09/07 11:02:24;;;;;;;;;;;;;;;-142.75;33.42;75519.25;5010585;28;20376;-76
2021/09/07 11:04:50;;;;;;;;;;;;;;;-142.75;34.40;75491.72;5077585;28;19995;-76
2021/09/07 11:07:48;;;;;;;;;;;;;;;-142.75;33.81;75519.25;5010486;28;19924;-76
2021/09/07 11:10:16;;;;;;;;;;;;;;;-142.75;33.02;75491.72;5055825;28;20000;-76
2021/09/07 11:12:51;;;;;;;;;;;;;;;-142.75;32.55;75475.97;5010931;28;20405;-75
2021/09/07 11:15:17;;;;;;;;;;;;;;;-142.75;33.07;75353.97;5078751;28;19917;-76
2021/09/07 11:17:51;;;;;;;;;;;;;;;-142.75;32.74;75434.66;4998982;28;20411;-76
2021/09/07 11:20:17;;;;;;;;;;;;;;;-142.75;33.25;75576.34;4991472;28;20389;-76
2021/09/07 11:22:42;;;;;;;;;;;;;;;-142.75;32.25;75485.81;5071837;28;19918;-76
2021/09/07 11:25:13;;;;;;;;;;;;;;;-142.75;33.77;75597.97;5009524;28;19982;-76
2021/09/07 11:27:54;;;;;;;;;;;;;;;-142.75;35.97;75647.19;5058914;28;20375;-76
2021/09/07 11:30:25;;;;;;;;;;;;;;;-142.75;35.39;75696.38;4990523;28;19955;-76
2021/09/07 11:32:54;;;;;;;;;;;;;;;-142.75;34.94;75690.47;4991073;28;20447;-76
2021/09/07 11:35:19;;;;;;;;;;;;;;;-142.75;38.29;75859.72;5001188;28;19925;-76
2021/09/07 11:37:44;;;;;;;;;;;;;;;-142.75;38.66;75940.44;4996640;28;20264;-75
2021/09/07 11:40:13;;;;;;;;;;;;;;;-142.75;38.22;75845.97;4996926;28;19918;-76
2021/09/07 11:42:42;;;;;;;;;;;;;;;-142.75;38.72;75877.44;5003710;28;19917;-76
2021/09/07 11:45:07;;;;;;;;;;;;;;;-142.75;37.98;75893.19;5006290;28;20378;-77
2021/09/07 11:47:32;;;;;;;;;;;;;;;-142.75;38.56;75924.69;5058161;28;19967;-77
2021/09/07 11:49:58;;;;;;;;;;;;;;;-142.75;39.70;75985.69;5056232;28;20379;-76
2021/09/07 11:52:23;;;;;;;;;;;;;;;-142.75;40.67;76011.28;5005676;28;19939;-76
2021/09/07 11:54:48;;;;;;;;;;;;;;;-142.75;39.84;75964.03;5074319;28;19921;-76
2021/09/07 11:57:13;;;;;;;;;;;;;;;-142.75;41.69;75928.63;4999603;28;19936;-77
2021/09/07 11:59:38;;;;;;;;;;;;;;;-142.75;40.16;75897.13;4991027;28;20371;-76
2021/09/07 12:02:08;;;;;;;;;;;;;;;-142.75;39.62;75914.84;4990430;28;19966;-76
2021/09/07 12:04:54;;;;;;;;;;;;;;;-142.75;39.93;75924.69;4992555;28;20360;-76
2021/09/07 12:07:19;;;;;;;;;;;;;;;-142.75;40.28;75932.56;5009590;28;19973;-76
2021/09/07 12:09:44;;;;;;;;;;;;;;;-142.75;39.80;75885.31;5077488;28;20007;-76
2021/09/07 12:12:13;;;;;;;;;;;;;;;-142.75;40.21;75928.63;4998783;28;20310;-76
2021/09/07 12:14:39;;;;;;;;;;;;;;;-142.75;41.71;75952.25;5000932;28;19952;-77
2021/09/07 12:17:04;;;;;;;;;;;;;;;-142.75;41.37;75889.25;5057314;28;19914;-74
2021/09/07 12:19:33;;;;;;;;;;;;;;;-142.75;40.37;75895.16;4989990;28;19914;-76
2021/09/07 12:22:05;;;;;;;;;;;;;;;-142.75;41.21;75956.19;4998800;28;19918;-76
2021/09/07 12:24:30;;;;;;;;;;;;;;;-142.75;41.78;76003.41;4990618;28;19914;-76
2021/09/07 12:26:55;;;;;;;;;;;;;;;-142.75;42.64;75983.72;5058520;28;19966;-76
2021/09/07 12:29:20;;;;;;;;;;;;;;;-142.75;42.35;75966.00;5057075;28;19960;-76